createdAt,value
2018-05-15T00:01:30.593Z,100846.61
2018-05-15T00:03:58.193Z,100848.78
2018-05-15T00:06:25.820Z,100848.33
2018-05-15T00:08:53.412Z,100858.41
2018-05-15T00:11:21.037Z,100853.52
2018-05-15T00:13:48.680Z,100858.31
2018-05-15T00:16:16.314Z,100866.11
2018-05-15T00:18:43.901Z,100871.77
2018-05-15T00:21:11.530Z,100866.95
2018-05-15T00:23:39.128Z,100871.59
2018-05-15T00:26:06.743Z,100878.51
2018-05-15T00:28:34.356Z,100879.83
2018-05-15T00:31:01.972Z,100882.09
2018-05-15T00:33:29.624Z,100892.16
2018-05-15T00:35:57.240Z,100889.46
2018-05-15T00:38:24.833Z,100889.88
2018-05-15T00:40:52.510Z,100889.39
2018-05-15T00:43:20.104Z,100888.41
2018-05-15T00:45:47.688Z,100887.02
2018-05-15T00:48:15.327Z,100885.52
2018-05-15T00:50:43.005Z,100885.85
2018-05-15T00:53:10.638Z,100891.84
2018-05-15T00:55:44.629Z,100887.28
2018-05-15T00:58:12.301Z,100886.48
2018-05-15T01:00:39.890Z,100889.72
2018-05-15T01:03:07.516Z,100890.64
2018-05-15T01:05:35.106Z,100891.98
2018-05-15T01:08:02.761Z,100891.35
2018-05-15T01:10:30.368Z,100886.77
2018-05-15T01:12:58.078Z,100897.18
2018-05-15T01:15:25.700Z,100897.29
2018-05-15T01:17:53.280Z,100895.48
2018-05-15T01:20:20.968Z,100896.41
2018-05-15T01:22:48.585Z,100898.00
2018-05-15T01:25:16.212Z,100902.69
2018-05-15T01:27:43.816Z,100899.10
2018-05-15T01:30:11.445Z,100897.73
2018-05-15T01:32:39.041Z,100897.95
2018-05-15T01:35:06.788Z,100905.98
2018-05-15T01:37:36.735Z,100899.11
2018-05-15T01:40:04.568Z,100903.73
2018-05-15T01:42:32.467Z,100896.77
2018-05-15T01:45:00.792Z,100902.32
2018-05-15T01:47:31.390Z,100898.42
2018-05-15T01:49:59.240Z,100895.05
2018-05-15T01:52:27.042Z,100890.95
2018-05-15T01:54:55.162Z,100888.84
2018-05-15T01:57:22.774Z,100888.59
2018-05-15T01:59:50.409Z,100894.52
2018-05-15T02:02:18.055Z,100900.20
2018-05-15T02:04:45.739Z,100898.53
2018-05-15T02:07:13.368Z,100899.80
2018-05-15T02:09:41.000Z,100899.98
2018-05-15T02:12:08.721Z,100893.31
2018-05-15T02:14:36.374Z,100895.21
2018-05-15T02:17:04.265Z,100896.05
2018-05-15T02:19:31.872Z,100901.33
2018-05-15T02:21:59.612Z,100897.91
2018-05-15T02:24:27.234Z,100889.66
2018-05-15T02:26:54.958Z,100902.91
2018-05-15T02:29:22.743Z,100903.78
2018-05-15T02:31:50.480Z,100900.77
2018-05-15T02:34:18.473Z,100896.06
2018-05-15T02:36:48.683Z,100902.48
2018-05-15T02:39:16.766Z,100901.83
2018-05-15T02:41:45.442Z,100905.40
2018-05-15T02:44:16.446Z,100902.48
2018-05-15T02:46:44.561Z,100904.14
2018-05-15T02:49:12.310Z,100902.66
2018-05-15T02:51:40.920Z,100897.51
2018-05-15T02:54:10.242Z,100895.24
2018-05-15T02:56:41.729Z,100896.34
2018-05-15T02:59:09.493Z,100896.73
2018-05-15T03:01:38.053Z,100898.68
2018-05-15T03:04:05.746Z,100904.83
2018-05-15T03:06:35.008Z,100907.10
2018-05-15T03:09:11.624Z,100900.86
2018-05-15T03:11:39.856Z,100913.84
2018-05-15T03:14:08.267Z,100910.11
2018-05-15T03:16:36.214Z,100910.33
2018-05-15T03:19:03.891Z,100911.06
2018-05-15T03:21:31.924Z,100913.47
2018-05-15T03:23:59.723Z,100910.94
2018-05-15T03:26:28.944Z,100916.69
2018-05-15T03:28:56.745Z,100924.35
2018-05-15T03:31:25.619Z,100926.92
2018-05-15T03:33:53.534Z,100925.56
2018-05-15T03:36:22.090Z,100927.48
2018-05-15T03:38:50.745Z,100926.16
2018-05-15T03:41:18.676Z,100930.26
2018-05-15T03:43:46.328Z,100932.39
2018-05-15T03:46:13.978Z,100929.48
2018-05-15T03:48:42.077Z,100931.96
2018-05-15T03:51:10.352Z,100930.17
2018-05-15T03:53:40.357Z,100928.17
2018-05-15T03:56:08.341Z,100936.58
2018-05-15T03:58:36.343Z,100937.21
2018-05-15T04:01:16.092Z,100939.34
2018-05-15T04:03:55.829Z,100940.09
2018-05-15T04:06:35.576Z,100943.02
2018-05-15T04:09:06.364Z,100943.36
2018-05-15T04:11:35.065Z,100948.81
2018-05-15T04:14:03.788Z,100948.14
2018-05-15T04:16:32.631Z,100956.38
2018-05-15T04:19:00.512Z,100957.62
2018-05-15T04:21:28.609Z,100956.13
2018-05-15T04:23:56.617Z,100953.88
2018-05-15T04:26:24.561Z,100960.42
2018-05-15T04:28:53.756Z,100957.12
2018-05-15T04:31:21.561Z,100960.42
2018-05-15T04:33:49.333Z,100951.05
2018-05-15T04:36:17.112Z,100955.81
2018-05-15T04:38:45.674Z,100952.13
2018-05-15T04:41:14.340Z,100953.95
2018-05-15T04:43:42.348Z,100960.72
2018-05-15T04:46:09.925Z,100957.30
2018-05-15T04:48:37.538Z,100955.48
2018-05-15T04:51:05.211Z,100959.61
2018-05-15T04:53:32.847Z,100964.89
2018-05-15T04:56:00.479Z,100963.30
2018-05-15T04:58:28.128Z,100964.68
2018-05-15T05:00:55.961Z,100967.27
2018-05-15T05:03:24.037Z,100972.47
2018-05-15T05:05:51.836Z,100973.89
2018-05-15T05:08:19.613Z,100978.41
2018-05-15T05:10:47.613Z,100974.01
2018-05-15T05:13:15.301Z,100975.06
2018-05-15T05:15:43.119Z,100975.47
2018-05-15T05:18:10.789Z,100977.58
2018-05-15T05:20:38.800Z,100982.13
2018-05-15T05:23:06.701Z,100975.43
2018-05-15T05:25:34.476Z,100976.05
2018-05-15T05:28:02.137Z,100981.36
2018-05-15T05:30:29.740Z,100987.59
2018-05-15T05:32:57.556Z,100989.05
2018-05-15T05:35:25.211Z,100984.20
2018-05-15T05:37:52.905Z,100996.58
2018-05-15T05:40:20.622Z,100997.96
2018-05-15T05:42:48.329Z,100995.41
2018-05-15T05:45:15.938Z,101005.94
2018-05-15T05:47:43.625Z,101005.70
2018-05-15T05:50:11.250Z,101019.32
2018-05-15T05:52:38.937Z,101020.73
2018-05-15T05:55:06.540Z,101020.82
2018-05-15T05:57:34.169Z,101018.70
2018-05-15T06:00:01.761Z,101010.56
2018-05-15T06:02:29.520Z,101015.41
2018-05-15T06:04:57.221Z,101019.47
2018-05-15T06:07:24.877Z,101023.48
2018-05-15T06:09:52.502Z,101020.91
2018-05-15T06:12:20.180Z,101017.03
2018-05-15T06:14:47.836Z,101020.56
2018-05-15T06:17:15.456Z,101023.75
2018-05-15T06:19:43.116Z,101018.14
2018-05-15T06:22:10.770Z,101020.36
2018-05-15T06:24:38.525Z,101024.38
2018-05-15T06:27:06.100Z,101033.64
2018-05-15T06:29:33.795Z,101028.92
2018-05-15T06:32:01.350Z,101024.97
2018-05-15T06:34:28.997Z,101029.39
2018-05-15T06:36:56.616Z,101027.71
2018-05-15T06:39:24.224Z,101029.17
2018-05-15T06:41:51.842Z,101022.62
2018-05-15T06:44:19.432Z,101023.08
2018-05-15T06:46:47.065Z,101023.13
2018-05-15T06:49:14.652Z,101018.80
2018-05-15T06:51:42.305Z,101020.21
2018-05-15T06:54:09.912Z,101024.67
2018-05-15T06:56:37.533Z,101025.12
2018-05-15T06:59:05.196Z,101030.92
2018-05-15T07:01:32.842Z,101031.86
2018-05-15T07:04:00.450Z,101034.52
2018-05-15T07:06:28.150Z,101032.80
2018-05-15T07:08:55.768Z,101030.65
2018-05-15T07:11:23.353Z,101033.73
2018-05-15T07:13:51.087Z,101033.82
2018-05-15T07:16:18.710Z,101032.11
2018-05-15T07:18:46.344Z,101032.13
2018-05-15T07:21:13.937Z,101029.09
2018-05-15T07:23:41.595Z,101030.02
2018-05-15T07:26:09.185Z,101032.67
2018-05-15T07:28:36.813Z,101028.33
2018-05-15T07:31:04.513Z,101034.04
2018-05-15T07:33:32.141Z,101035.81
2018-05-15T07:35:59.764Z,101030.13
2018-05-15T07:38:27.400Z,101037.59
2018-05-15T07:40:54.993Z,101039.00
2018-05-15T07:43:22.641Z,101042.97
2018-05-15T07:45:50.241Z,101038.16
2018-05-15T07:48:17.902Z,101039.03
2018-05-15T07:50:45.502Z,101036.41
2018-05-15T07:53:13.124Z,101040.80
2018-05-15T07:55:40.741Z,101036.84
2018-05-15T07:58:08.481Z,101039.95
2018-05-15T08:00:36.086Z,101035.09
2018-05-15T08:03:03.681Z,101043.87
2018-05-15T08:05:31.297Z,101046.95
2018-05-15T08:07:58.889Z,101044.77
2018-05-15T08:10:26.630Z,101043.00
2018-05-15T08:12:54.278Z,101042.56
2018-05-15T08:15:21.885Z,101041.23
2018-05-15T08:17:49.480Z,101046.08
2018-05-15T08:20:17.144Z,101043.86
2018-05-15T08:22:44.743Z,101042.98
2018-05-15T08:25:12.369Z,101039.90
2018-05-15T08:27:39.952Z,101040.34
2018-05-15T08:30:07.580Z,101045.16
2018-05-15T08:32:35.172Z,101047.78
2018-05-15T08:35:02.822Z,101040.22
2018-05-15T08:37:30.496Z,101045.48
2018-05-15T08:39:58.094Z,101047.23
2018-05-15T08:42:25.694Z,101050.71
2018-05-15T08:44:53.367Z,101052.02
2018-05-15T08:47:20.985Z,101043.55
2018-05-15T08:49:48.632Z,101043.51
2018-05-15T08:52:16.252Z,101046.53
2018-05-15T08:54:43.856Z,101042.93
2018-05-15T08:57:11.515Z,101042.88
2018-05-15T08:59:39.110Z,101035.41
2018-05-15T09:02:06.740Z,101033.22
2018-05-15T09:04:34.401Z,101035.51
2018-05-15T09:07:02.047Z,101039.75
2018-05-15T09:09:29.783Z,101041.84
2018-05-15T09:11:57.428Z,101041.27
2018-05-15T09:14:25.029Z,101036.03
2018-05-15T09:16:52.793Z,101034.47
2018-05-15T09:19:20.458Z,101029.02
2018-05-15T09:21:48.036Z,101032.03
2018-05-15T09:24:15.641Z,101028.92
2018-05-15T09:26:43.274Z,101028.12
2018-05-15T09:29:11.037Z,101032.12
2018-05-15T09:31:38.674Z,101033.19
2018-05-15T09:34:07.216Z,101034.98
2018-05-15T09:36:34.856Z,101028.44
2018-05-15T09:39:02.468Z,101034.31
2018-05-15T09:41:30.137Z,101034.95
2018-05-15T09:43:57.708Z,101036.53
2018-05-15T09:46:25.313Z,101032.45
2018-05-15T09:48:52.969Z,101036.78
2018-05-15T09:51:20.560Z,101040.47
2018-05-15T09:53:48.238Z,101039.08
2018-05-15T09:56:15.905Z,101034.63
2018-05-15T09:58:43.664Z,101033.33
2018-05-15T10:01:11.276Z,101031.20
2018-05-15T10:03:38.915Z,101028.88
2018-05-15T10:06:06.524Z,101030.14
2018-05-15T10:08:34.140Z,101036.47
2018-05-15T10:11:01.704Z,101029.13
2018-05-15T10:13:30.245Z,101036.75
2018-05-15T10:15:57.996Z,101028.48
2018-05-15T10:18:25.685Z,101030.88
2018-05-15T10:20:53.308Z,101025.34
2018-05-15T10:23:20.933Z,101021.89
2018-05-15T10:25:48.552Z,101030.01
2018-05-15T10:28:16.205Z,101021.53
2018-05-15T10:30:43.809Z,101024.81
2018-05-15T10:33:11.437Z,101018.13
2018-05-15T10:35:39.080Z,101013.16
2018-05-15T10:38:06.701Z,101018.89
2018-05-15T10:40:34.340Z,101018.92
2018-05-15T10:43:02.005Z,101016.05
2018-05-15T10:45:29.644Z,101010.03
2018-05-15T10:47:57.242Z,101019.75
2018-05-15T10:50:24.891Z,101019.47
2018-05-15T10:52:52.557Z,101011.64
2018-05-15T10:55:20.193Z,101010.80
2018-05-15T10:57:47.821Z,101017.22
2018-05-15T11:00:15.454Z,101011.34
2018-05-15T11:02:43.061Z,101006.86
2018-05-15T11:05:10.713Z,101004.19
2018-05-15T11:07:38.472Z,101003.93
2018-05-15T11:10:06.131Z,101010.88
2018-05-15T11:12:33.764Z,101007.78
2018-05-15T11:15:01.393Z,101002.47
2018-05-15T11:17:28.989Z,101007.49
2018-05-15T11:20:08.162Z,101008.27
2018-05-15T11:22:47.385Z,100998.64
2018-05-15T11:25:15.050Z,101006.23
2018-05-15T11:27:42.637Z,101007.73
2018-05-15T11:30:10.239Z,101002.94
2018-05-15T11:32:37.886Z,101001.66
2018-05-15T11:35:05.550Z,101006.72
2018-05-15T11:37:33.205Z,100998.64
2018-05-15T11:40:00.804Z,100993.92
2018-05-15T11:42:28.594Z,100995.47
2018-05-15T11:44:56.188Z,101000.45
2018-05-15T11:47:23.937Z,101000.09
2018-05-15T11:49:51.944Z,100995.37
2018-05-15T11:52:20.071Z,100996.02
2018-05-15T11:54:46.646Z,100996.87
2018-05-15T11:57:14.288Z,100989.71
2018-05-15T11:59:41.961Z,100985.47
2018-05-15T12:02:09.525Z,100994.52
2018-05-15T12:04:37.129Z,100981.27
2018-05-15T12:07:04.776Z,100989.25
2018-05-15T12:09:32.466Z,100994.40
2018-05-15T12:12:00.073Z,100992.63
2018-05-15T12:14:27.713Z,100990.53
2018-05-15T12:16:55.302Z,100994.52
2018-05-15T12:19:22.934Z,100996.84
2018-05-15T12:21:50.633Z,100997.30
2018-05-15T12:24:18.293Z,100997.05
2018-05-15T12:26:45.900Z,100995.69
2018-05-15T12:29:13.562Z,100999.55
2018-05-15T12:31:41.193Z,100996.00
2018-05-15T12:34:08.819Z,101002.48
2018-05-15T12:36:36.438Z,101002.59
2018-05-15T12:39:04.157Z,101001.53
2018-05-15T12:41:31.910Z,100995.53
2018-05-15T12:43:59.394Z,101000.95
2018-05-15T12:46:27.015Z,101010.48
2018-05-15T12:48:54.657Z,101003.70
2018-05-15T12:51:22.273Z,101004.84
2018-05-15T12:53:49.937Z,100999.87
2018-05-15T12:56:17.545Z,100998.90
2018-05-15T12:58:45.192Z,101001.44
2018-05-15T13:01:12.901Z,100995.30
2018-05-15T13:03:40.524Z,100982.43
2018-05-15T13:06:08.160Z,100985.03
2018-05-15T13:08:35.838Z,100981.02
2018-05-15T13:11:03.486Z,100992.36
2018-05-15T13:13:31.215Z,100994.78
2018-05-15T13:15:58.857Z,100997.97
2018-05-15T13:18:26.476Z,100998.00
2018-05-15T13:20:54.118Z,101001.18
2018-05-15T13:23:21.731Z,100999.77
2018-05-15T13:25:49.376Z,100996.34
2018-05-15T13:28:16.983Z,100988.17
2018-05-15T13:30:44.623Z,100987.88
2018-05-15T13:33:12.229Z,100976.05
2018-05-15T13:35:39.880Z,100969.48
2018-05-15T13:38:07.552Z,100975.83
2018-05-15T13:40:35.301Z,100965.55
2018-05-15T13:43:02.900Z,100964.30
2018-05-15T13:45:30.641Z,100956.31
2018-05-15T13:47:58.261Z,100956.80
2018-05-15T13:50:25.971Z,100951.05
2018-05-15T13:52:53.564Z,100951.25
2018-05-15T13:55:21.229Z,100941.23
2018-05-15T13:57:48.893Z,100942.17
2018-05-15T14:00:16.513Z,100936.41
2018-05-15T14:02:44.153Z,100940.02
2018-05-15T14:05:11.780Z,100936.91
2018-05-15T14:07:39.424Z,100937.69
2018-05-15T14:10:07.041Z,100942.96
2018-05-15T14:12:34.786Z,100945.48
2018-05-15T14:15:02.377Z,100945.20
2018-05-15T14:17:30.054Z,100946.13
2018-05-15T14:19:57.694Z,100940.75
2018-05-15T14:22:25.337Z,100942.78
2018-05-15T14:24:52.933Z,100950.27
2018-05-15T14:27:20.562Z,100943.43
2018-05-15T14:29:48.185Z,100936.23
2018-05-15T14:32:15.866Z,100934.16
2018-05-15T14:34:43.461Z,100944.09
2018-05-15T14:37:11.168Z,100936.70
2018-05-15T14:39:38.774Z,100932.84
2018-05-15T14:42:17.957Z,100930.06
2018-05-15T14:44:45.558Z,100925.28
2018-05-15T14:47:13.276Z,100925.84
2018-05-15T14:49:40.905Z,100926.29
2018-05-15T14:52:08.584Z,100926.70
2018-05-15T14:54:36.297Z,100929.95
2018-05-15T14:57:03.918Z,100923.84
2018-05-15T14:59:31.558Z,100928.83
2018-05-15T15:01:59.171Z,100926.73
2018-05-15T15:04:26.841Z,100929.39
2018-05-15T15:06:54.440Z,100923.77
2018-05-15T15:09:22.118Z,100925.39
2018-05-15T15:11:49.712Z,100920.73
2018-05-15T15:14:17.357Z,100911.81
2018-05-15T15:16:45.017Z,100910.64
2018-05-15T15:19:12.673Z,100906.88
2018-05-15T15:21:40.283Z,100906.17
2018-05-15T15:24:07.923Z,100908.00
2018-05-15T15:26:35.590Z,100905.94
2018-05-15T15:29:03.289Z,100898.31
2018-05-15T15:31:30.934Z,100900.59
2018-05-15T15:33:58.549Z,100899.01
2018-05-15T15:36:26.216Z,100897.98
2018-05-15T15:38:53.813Z,100899.33
2018-05-15T15:41:21.448Z,100897.91
2018-05-15T15:43:49.132Z,100900.67
2018-05-15T15:46:16.685Z,100895.25
2018-05-15T15:48:44.288Z,100895.75
2018-05-15T15:51:11.974Z,100896.62
2018-05-15T15:53:39.573Z,100893.30
2018-05-15T15:56:07.265Z,100892.66
2018-05-15T15:58:34.880Z,100890.68
2018-05-15T16:01:02.673Z,100896.33
2018-05-15T16:03:30.271Z,100893.65
2018-05-15T16:05:57.942Z,100890.53
2018-05-15T16:08:25.683Z,100896.77
2018-05-15T16:10:53.328Z,100887.81
2018-05-15T16:13:21.073Z,100883.64
2018-05-15T16:15:48.706Z,100892.14
2018-05-15T16:18:16.341Z,100893.83
2018-05-15T16:20:43.964Z,100890.94
2018-05-15T16:23:11.606Z,100900.77
2018-05-15T16:25:39.241Z,100892.02
2018-05-15T16:28:06.898Z,100891.33
2018-05-15T16:30:34.500Z,100888.73
2018-05-15T16:33:02.156Z,100895.98
2018-05-15T16:35:29.771Z,100892.42
2018-05-15T16:37:57.414Z,100894.40
2018-05-15T16:40:25.031Z,100891.37
2018-05-15T16:42:52.700Z,100885.98
2018-05-15T16:45:20.305Z,100894.99
2018-05-15T16:47:47.897Z,100891.97
2018-05-15T16:50:15.548Z,100889.72
2018-05-15T16:52:43.179Z,100888.89
2018-05-15T16:55:10.925Z,100891.05
2018-05-15T16:57:38.549Z,100891.45
2018-05-15T17:00:06.253Z,100890.17
2018-05-15T17:02:33.928Z,100888.47
2018-05-15T17:05:01.573Z,100894.83
2018-05-15T17:07:29.195Z,100888.63
2018-05-15T17:09:56.842Z,100897.75
2018-05-15T17:12:24.622Z,100892.41
2018-05-15T17:14:52.255Z,100894.43
2018-05-15T17:17:19.899Z,100895.25
2018-05-15T17:19:47.554Z,100892.59
2018-05-15T17:22:15.175Z,100888.63
2018-05-15T17:24:42.829Z,100891.36
2018-05-15T17:27:10.473Z,100890.57
2018-05-15T17:29:38.057Z,100890.70
2018-05-15T17:32:05.720Z,100885.65
2018-05-15T17:34:33.333Z,100886.17
2018-05-15T17:37:01.094Z,100885.99
2018-05-15T17:39:28.853Z,100888.69
2018-05-15T17:41:56.489Z,100892.23
2018-05-15T17:44:24.112Z,100890.32
2018-05-15T17:46:51.830Z,100896.12
2018-05-15T17:49:19.423Z,100897.46
2018-05-15T17:51:47.083Z,100896.48
2018-05-15T17:54:14.730Z,100892.71
2018-05-15T17:56:42.381Z,100900.82
2018-05-15T17:59:10.077Z,100904.19
2018-05-15T18:01:37.763Z,100906.34
2018-05-15T18:04:05.367Z,100903.67
2018-05-15T18:06:33.018Z,100904.12
2018-05-15T18:09:00.810Z,100907.01
2018-05-15T18:11:28.424Z,100903.53
2018-05-15T18:13:56.205Z,100910.30
2018-05-15T18:16:24.017Z,100908.25
2018-05-15T18:18:52.066Z,100903.61
2018-05-15T18:21:19.723Z,100900.77
2018-05-15T18:23:47.338Z,100910.65
2018-05-15T18:26:15.209Z,100911.91
2018-05-15T18:28:42.845Z,100905.55
2018-05-15T18:31:10.452Z,100911.80
2018-05-15T18:33:38.205Z,100908.09
2018-05-15T18:36:05.854Z,100914.18
2018-05-15T18:38:33.662Z,100911.15
2018-05-15T18:41:01.282Z,100911.20
2018-05-15T18:43:28.991Z,100912.70
2018-05-15T18:45:56.603Z,100908.39
2018-05-15T18:48:24.358Z,100914.30
2018-05-15T18:50:52.012Z,100916.62
2018-05-15T18:53:19.685Z,100919.86
2018-05-15T18:55:47.299Z,100919.51
2018-05-15T18:58:14.949Z,100923.58
2018-05-15T19:00:42.577Z,100921.03
2018-05-15T19:03:10.234Z,100927.34
2018-05-15T19:05:38.038Z,100930.95
2018-05-15T19:08:05.685Z,100930.12
2018-05-15T19:10:33.337Z,100928.10
2018-05-15T19:13:01.053Z,100932.60
2018-05-15T19:15:28.714Z,100932.64
2018-05-15T19:17:56.342Z,100934.98
2018-05-15T19:20:24.181Z,100930.29
2018-05-15T19:22:51.877Z,100941.82
2018-05-15T19:25:19.544Z,100939.27
2018-05-15T19:27:47.194Z,100944.23
2018-05-15T19:30:14.875Z,100949.25
2018-05-15T19:32:42.578Z,100948.87
2018-05-15T19:35:10.213Z,100952.16
2018-05-15T19:37:37.804Z,100945.14
2018-05-15T19:40:10.806Z,100944.81
2018-05-15T19:42:38.458Z,100954.52
2018-05-15T19:45:06.109Z,100946.11
2018-05-15T19:47:33.725Z,100945.67
2018-05-15T19:50:01.412Z,100950.78
2018-05-15T19:52:29.123Z,100950.26
2018-05-15T19:54:56.769Z,100953.09
2018-05-15T19:57:24.456Z,100952.44
2018-05-15T19:59:52.123Z,100950.88
2018-05-15T20:02:19.752Z,100946.39
2018-05-15T20:04:47.457Z,100944.58
2018-05-15T20:07:15.078Z,100948.52
2018-05-15T20:09:42.734Z,100949.06
2018-05-15T20:12:10.460Z,100947.45
2018-05-15T20:14:38.069Z,100941.58
2018-05-15T20:17:05.713Z,100950.04
2018-05-15T20:19:33.358Z,100948.81
2018-05-15T20:22:01.067Z,100950.81
2018-05-15T20:24:28.675Z,100947.45
2018-05-15T20:26:56.418Z,100955.00
2018-05-15T20:29:24.278Z,100953.61
2018-05-15T20:31:52.008Z,100956.88
2018-05-15T20:34:19.623Z,100954.18
2018-05-15T20:36:47.319Z,100946.98
2018-05-15T20:39:15.013Z,100952.41
2018-05-15T20:41:42.660Z,100951.44
2018-05-15T20:44:10.274Z,100954.84
2018-05-15T20:46:37.924Z,100955.47
2018-05-15T20:49:05.547Z,100952.51
2018-05-15T20:51:33.293Z,100950.47
2018-05-15T20:54:00.967Z,100955.73
2018-05-15T20:56:28.545Z,100949.55
2018-05-15T20:58:56.200Z,100950.99
2018-05-15T21:01:23.802Z,100949.80
2018-05-15T21:03:51.436Z,100951.60
2018-05-15T21:06:19.041Z,100950.36
2018-05-15T21:08:46.738Z,100950.47
2018-05-15T21:11:14.351Z,100949.59
2018-05-15T21:13:42.057Z,100950.05
2018-05-15T21:16:09.675Z,100945.27
2018-05-15T21:18:37.367Z,100952.35
2018-05-15T21:21:04.976Z,100951.09
2018-05-15T21:23:32.607Z,100949.76
2018-05-15T21:26:00.200Z,100944.50
2018-05-15T21:28:27.834Z,100949.34
2018-05-15T21:30:55.514Z,100944.49
2018-05-15T21:33:23.150Z,100942.72
2018-05-15T21:35:50.789Z,100947.56
2018-05-15T21:38:18.461Z,100948.01
2018-05-15T21:40:46.077Z,100948.45
2018-05-15T21:43:13.691Z,100945.83
2018-05-15T21:45:41.333Z,100951.08
2018-05-15T21:48:08.931Z,100952.36
2018-05-15T21:50:36.573Z,100951.92
2018-05-15T21:53:04.176Z,100946.64
2018-05-15T21:55:31.828Z,100949.69
2018-05-15T21:57:59.537Z,100952.34
2018-05-15T22:00:27.184Z,100945.30
2018-05-15T22:02:54.931Z,100944.85
2018-05-15T22:05:22.569Z,100947.94
2018-05-15T22:07:50.249Z,100945.75
2018-05-15T22:10:17.908Z,100934.33
2018-05-15T22:12:57.395Z,100941.34
2018-05-15T22:23:40.364Z,100930.82
2018-05-15T22:26:08.021Z,100925.12
2018-05-15T22:28:35.765Z,100919.81
2018-05-15T22:31:03.373Z,100918.92
2018-05-15T22:33:31.124Z,100913.17
2018-05-15T22:35:58.716Z,100910.52
2018-05-15T22:38:26.429Z,100916.19
2018-05-15T22:40:54.013Z,100907.84
2018-05-15T22:43:21.650Z,100910.48
2018-05-15T22:45:49.418Z,100911.78
2018-05-15T22:48:17.095Z,100908.25
2018-05-15T22:50:44.688Z,100906.42
2018-05-15T22:53:12.320Z,100905.98
2018-05-15T22:55:39.996Z,100905.50
2018-05-15T22:58:07.607Z,100901.08
2018-05-15T23:00:35.289Z,100904.92
2018-05-15T23:03:02.900Z,100897.02
2018-05-15T23:05:30.542Z,100892.59
2018-05-15T23:07:58.125Z,100895.16
2018-05-15T23:10:25.776Z,100897.82
2018-05-15T23:12:53.377Z,100896.95
2018-05-15T23:15:21.039Z,100898.33
2018-05-15T23:17:48.632Z,100898.27
2018-05-15T23:20:16.280Z,100893.47
2018-05-15T23:22:43.881Z,100891.59
2018-05-15T23:25:11.569Z,100890.18
2018-05-15T23:27:39.203Z,100890.64
2018-05-15T23:30:06.823Z,100891.59
2018-05-15T23:32:34.446Z,100890.76
2018-05-15T23:35:02.101Z,100882.87
2018-05-15T23:37:29.750Z,100886.36
2018-05-15T23:39:57.496Z,100890.25
2018-05-15T23:42:25.113Z,100890.20
2018-05-15T23:44:52.735Z,100891.01
2018-05-15T23:47:20.399Z,100894.92
2018-05-15T23:49:48.045Z,100894.94
2018-05-15T23:52:15.756Z,100890.43
2018-05-15T23:54:43.352Z,100896.89
2018-05-15T23:57:11.244Z,100898.62
2018-05-15T23:59:38.837Z,100898.22
